﻿<?xml version="1.0" encoding="utf-8"?><gpx creator="Garmin Desktop App" version="1.1" xsi:schemaLocation="http://www.topografix.com/GPX/1/1 http://www.topografix.com/GPX/1/1/gpx.xsd http://www.garmin.com/xmlschemas/WaypointExtension/v1 http://www8.garmin.com/xmlschemas/WaypointExtensionv1.xsd http://www.garmin.com/xmlschemas/TrackPointExtension/v1 http://www.garmin.com/xmlschemas/TrackPointExtensionv1.xsd http://www.garmin.com/xmlschemas/GpxExtensions/v3 http://www8.garmin.com/xmlschemas/GpxExtensionsv3.xsd http://www.garmin.com/xmlschemas/ActivityExtension/v1 http://www8.garmin.com/xmlschemas/ActivityExtensionv1.xsd http://www.garmin.com/xmlschemas/AdventuresExtensions/v1 http://www8.garmin.com/xmlschemas/AdventuresExtensionv1.xsd http://www.garmin.com/xmlschemas/PressureExtension/v1 http://www.garmin.com/xmlschemas/PressureExtensionv1.xsd http://www.garmin.com/xmlschemas/TripExtensions/v1 http://www.garmin.com/xmlschemas/TripExtensionsv1.xsd http://www.garmin.com/xmlschemas/TripMetaDataExtensions/v1 http://www.garmin.com/xmlschemas/TripMetaDataExtensionsv1.xsd http://www.garmin.com/xmlschemas/ViaPointTransportationModeExtensions/v1 http://www.garmin.com/xmlschemas/ViaPointTransportationModeExtensionsv1.xsd http://www.garmin.com/xmlschemas/CreationTimeExtension/v1 http://www.garmin.com/xmlschemas/CreationTimeExtensionsv1.xsd http://www.garmin.com/xmlschemas/AccelerationExtension/v1 http://www.garmin.com/xmlschemas/AccelerationExtensionv1.xsd http://www.garmin.com/xmlschemas/PowerExtension/v1 http://www.garmin.com/xmlschemas/PowerExtensionv1.xsd http://www.garmin.com/xmlschemas/VideoExtension/v1 http://www.garmin.com/xmlschemas/VideoExtensionv1.xsd" xmlns="http://www.topografix.com/GPX/1/1" xmlns:xsi="http://www.w3.org/2001/XMLSchema-instance" xmlns:wptx1="http://www.garmin.com/xmlschemas/WaypointExtension/v1" xmlns:gpxtrx="http://www.garmin.com/xmlschemas/GpxExtensions/v3" xmlns:gpxtpx="http://www.garmin.com/xmlschemas/TrackPointExtension/v1" xmlns:gpxx="http://www.garmin.com/xmlschemas/GpxExtensions/v3" xmlns:trp="http://www.garmin.com/xmlschemas/TripExtensions/v1" xmlns:adv="http://www.garmin.com/xmlschemas/AdventuresExtensions/v1" xmlns:prs="http://www.garmin.com/xmlschemas/PressureExtension/v1" xmlns:tmd="http://www.garmin.com/xmlschemas/TripMetaDataExtensions/v1" xmlns:vptm="http://www.garmin.com/xmlschemas/ViaPointTransportationModeExtensions/v1" xmlns:ctx="http://www.garmin.com/xmlschemas/CreationTimeExtension/v1" xmlns:gpxacc="http://www.garmin.com/xmlschemas/AccelerationExtension/v1" xmlns:gpxpx="http://www.garmin.com/xmlschemas/PowerExtension/v1" xmlns:vidx1="http://www.garmin.com/xmlschemas/VideoExtension/v1">

  <metadata>
    <link href="http://www.garmin.com">
      <text>Garmin International</text>
    </link>
    <time>2026-04-03T18:25:09Z</time>
    <bounds maxlat="51.194505393505096" maxlon="5.711407950147986" minlat="51.182637708261609" minlon="5.657617840915918" />
  </metadata>

  <trk>
    <name>20260408 Nieuw Vosseven</name>
    <extensions>
      <gpxx:TrackExtension>
        <gpxx:DisplayColor>Cyan</gpxx:DisplayColor>
      </gpxx:TrackExtension>
    </extensions>
    <trkseg>
      <trkpt lat="51.191000668331981" lon="5.658732047304511">
        <ele>33.880000000000003</ele>
        <time>2026-03-31T07:10:17Z</time>
      </trkpt>
      <trkpt lat="51.190997483208776" lon="5.658989371731877">
        <ele>33.829999999999998</ele>
        <time>2026-03-31T07:10:31Z</time>
      </trkpt>
      <trkpt lat="51.191041572019458" lon="5.659382063895464">
        <ele>34.130000000000003</ele>
        <time>2026-03-31T07:10:52Z</time>
      </trkpt>
      <trkpt lat="51.191141232848167" lon="5.659650955349207">
        <ele>33.740000000000002</ele>
        <time>2026-03-31T07:11:15Z</time>
      </trkpt>
      <trkpt lat="51.191238882020116" lon="5.659597227349877">
        <ele>33.670000000000002</ele>
        <time>2026-03-31T07:11:19Z</time>
      </trkpt>
      <trkpt lat="51.1922896374017" lon="5.658935643732548">
        <ele>33.43</ele>
        <time>2026-03-31T07:11:39Z</time>
      </trkpt>
      <trkpt lat="51.192939067259431" lon="5.658631548285484">
        <ele>33.729999999999997</ele>
        <time>2026-03-31T07:13:34Z</time>
      </trkpt>
      <trkpt lat="51.193046690896153" lon="5.659470744431019">
        <ele>33.640000000000001</ele>
        <time>2026-03-31T07:14:25Z</time>
      </trkpt>
      <trkpt lat="51.193195888772607" lon="5.660653179511428">
        <ele>33.350000000000001</ele>
        <time>2026-03-31T07:15:24Z</time>
      </trkpt>
      <trkpt lat="51.193203767761588" lon="5.660782093182206">
        <ele>33.280000000000001</ele>
        <time>2026-03-31T07:15:30Z</time>
      </trkpt>
      <trkpt lat="51.193301333114505" lon="5.661889342591167">
        <ele>32.899999999999999</ele>
        <time>2026-03-31T07:16:29Z</time>
      </trkpt>
      <trkpt lat="51.193325389176607" lon="5.662110038101673">
        <ele>32.829999999999998</ele>
        <time>2026-03-31T07:16:41Z</time>
      </trkpt>
      <trkpt lat="51.193429073318839" lon="5.663000782951713">
        <ele>32.890000000000001</ele>
        <time>2026-03-31T07:17:28Z</time>
      </trkpt>
      <trkpt lat="51.19347651489079" lon="5.663299346342683">
        <ele>32.579999999999998</ele>
        <time>2026-03-31T07:17:43Z</time>
      </trkpt>
      <trkpt lat="51.193530997261405" lon="5.663643423467875">
        <ele>32.390000000000001</ele>
        <time>2026-03-31T07:18:01Z</time>
      </trkpt>
      <trkpt lat="51.193606685847044" lon="5.664227223023772">
        <ele>32.170000000000002</ele>
        <time>2026-03-31T07:18:30Z</time>
      </trkpt>
      <trkpt lat="51.193630238994956" lon="5.664517739787698">
        <ele>32.409999999999997</ele>
        <time>2026-03-31T07:18:45Z</time>
      </trkpt>
      <trkpt lat="51.193619510158896" lon="5.664932057261467">
        <ele>32.590000000000003</ele>
        <time>2026-03-31T07:19:05Z</time>
      </trkpt>
      <trkpt lat="51.19360601529479" lon="5.665046637877822">
        <ele>32.479999999999997</ele>
        <time>2026-03-31T07:19:11Z</time>
      </trkpt>
      <trkpt lat="51.19358891621232" lon="5.66530941054225">
        <ele>32.380000000000003</ele>
        <time>2026-03-31T07:19:15Z</time>
      </trkpt>
      <trkpt lat="51.193607775494456" lon="5.665450394153595">
        <ele>32.060000000000002</ele>
        <time>2026-03-31T07:19:28Z</time>
      </trkpt>
      <trkpt lat="51.193675165995955" lon="5.665657594799995">
        <ele>31.91</ele>
        <time>2026-03-31T07:19:43Z</time>
      </trkpt>
      <trkpt lat="51.193770468235016" lon="5.66630233079195">
        <ele>31.920000000000002</ele>
        <time>2026-03-31T07:20:16Z</time>
      </trkpt>
      <trkpt lat="51.194032989442348" lon="5.668173925951123">
        <ele>31.969999999999999</ele>
        <time>2026-03-31T07:21:55Z</time>
      </trkpt>
      <trkpt lat="51.194120915606618" lon="5.669093672186136">
        <ele>32.020000000000003</ele>
        <time>2026-03-31T07:22:47Z</time>
      </trkpt>
      <trkpt lat="51.19412443600595" lon="5.669432133436203">
        <ele>32.060000000000002</ele>
        <time>2026-03-31T07:23:00Z</time>
      </trkpt>
      <trkpt lat="51.194085879251361" lon="5.669543193653226">
        <ele>32.079999999999998</ele>
        <time>2026-03-31T07:23:05Z</time>
      </trkpt>
      <trkpt lat="51.194038605317473" lon="5.670395800843835">
        <ele>32.420000000000002</ele>
        <time>2026-03-31T07:23:49Z</time>
      </trkpt>
      <trkpt lat="51.194048160687089" lon="5.67069360986352">
        <ele>32.899999999999999</ele>
        <time>2026-03-31T07:24:04Z</time>
      </trkpt>
      <trkpt lat="51.194050842896104" lon="5.670980103313923">
        <ele>33.259999999999998</ele>
        <time>2026-03-31T07:24:21Z</time>
      </trkpt>
      <trkpt lat="51.194025529548526" lon="5.671335412189364">
        <ele>33.759999999999998</ele>
        <time>2026-03-31T07:24:41Z</time>
      </trkpt>
      <trkpt lat="51.193971633911133" lon="5.671802619472146">
        <ele>33.329999999999998</ele>
        <time>2026-03-31T07:25:14Z</time>
      </trkpt>
      <trkpt lat="51.193761415779591" lon="5.672265384346247">
        <ele>33.100000000000001</ele>
        <time>2026-03-31T07:25:27Z</time>
      </trkpt>
      <trkpt lat="51.193785723298788" lon="5.672582723200321">
        <ele>33.329999999999998</ele>
        <time>2026-03-31T07:25:44Z</time>
      </trkpt>
      <trkpt lat="51.193881863728166" lon="5.673158643767238">
        <ele>32.759999999999998</ele>
        <time>2026-03-31T07:26:17Z</time>
      </trkpt>
      <trkpt lat="51.193740796297789" lon="5.67337715998292">
        <ele>32.600000000000001</ele>
        <time>2026-03-31T07:26:31Z</time>
      </trkpt>
      <trkpt lat="51.193641135469079" lon="5.673527028411627">
        <ele>32.219999999999999</ele>
        <time>2026-03-31T07:26:39Z</time>
      </trkpt>
      <trkpt lat="51.193587239831686" lon="5.673725344240665">
        <ele>31.870000000000001</ele>
        <time>2026-03-31T07:26:54Z</time>
      </trkpt>
      <trkpt lat="51.193533344194293" lon="5.673989793285728">
        <ele>31.109999999999999</ele>
        <time>2026-03-31T07:27:08Z</time>
      </trkpt>
      <trkpt lat="51.193499146029353" lon="5.674240915104747">
        <ele>31.32</ele>
        <time>2026-03-31T07:27:22Z</time>
      </trkpt>
      <trkpt lat="51.193418595939875" lon="5.674593206495047">
        <ele>30.77</ele>
        <time>2026-03-31T07:27:42Z</time>
      </trkpt>
      <trkpt lat="51.193220531567931" lon="5.675629125908017">
        <ele>30.93</ele>
        <time>2026-03-31T07:28:34Z</time>
      </trkpt>
      <trkpt lat="51.193096563220024" lon="5.676206555217505">
        <ele>30.91</ele>
        <time>2026-03-31T07:29:08Z</time>
      </trkpt>
      <trkpt lat="51.192961866036057" lon="5.677229147404432">
        <ele>31.109999999999999</ele>
        <time>2026-03-31T07:30:00Z</time>
      </trkpt>
      <trkpt lat="51.192888105288148" lon="5.677666766569018">
        <ele>30.27</ele>
        <time>2026-03-31T07:30:24Z</time>
      </trkpt>
      <trkpt lat="51.19264829903841" lon="5.680311424657702">
        <ele>30.5</ele>
        <time>2026-03-31T07:32:46Z</time>
      </trkpt>
      <trkpt lat="51.192680653184652" lon="5.680907713249326">
        <ele>30.82</ele>
        <time>2026-03-31T07:33:09Z</time>
      </trkpt>
      <trkpt lat="51.192684760317206" lon="5.68127098493278">
        <ele>30.59</ele>
        <time>2026-03-31T07:33:33Z</time>
      </trkpt>
      <trkpt lat="51.192710241302848" lon="5.681524788960815">
        <ele>30.719999999999999</ele>
        <time>2026-03-31T07:33:44Z</time>
      </trkpt>
      <trkpt lat="51.192812668159604" lon="5.683270655572414">
        <ele>30.359999999999999</ele>
        <time>2026-03-31T07:35:16Z</time>
      </trkpt>
      <trkpt lat="51.192850973457098" lon="5.683692097663879">
        <ele>30.170000000000002</ele>
        <time>2026-03-31T07:35:37Z</time>
      </trkpt>
      <trkpt lat="51.192926410585642" lon="5.68430095911026">
        <ele>29.989999999999998</ele>
        <time>2026-03-31T07:36:09Z</time>
      </trkpt>
      <trkpt lat="51.192954909056425" lon="5.684546129778028">
        <ele>29.93</ele>
        <time>2026-03-31T07:36:23Z</time>
      </trkpt>
      <trkpt lat="51.193014839664102" lon="5.685023395344615">
        <ele>29.829999999999998</ele>
        <time>2026-03-31T07:36:46Z</time>
      </trkpt>
      <trkpt lat="51.193044763058424" lon="5.685263117775321">
        <ele>29.359999999999999</ele>
        <time>2026-03-31T07:36:58Z</time>
      </trkpt>
      <trkpt lat="51.193168144673109" lon="5.686439098790288">
        <ele>30.059999999999999</ele>
        <time>2026-03-31T07:38:44Z</time>
      </trkpt>
      <trkpt lat="51.193205947056413" lon="5.686750402674079">
        <ele>30.039999999999999</ele>
        <time>2026-03-31T07:39:01Z</time>
      </trkpt>
      <trkpt lat="51.193262524902821" lon="5.687356917187572">
        <ele>30.390000000000001</ele>
        <time>2026-03-31T07:39:38Z</time>
      </trkpt>
      <trkpt lat="51.193383308127522" lon="5.688428040593863">
        <ele>30.489999999999998</ele>
        <time>2026-03-31T07:40:34Z</time>
      </trkpt>
      <trkpt lat="51.193589922040701" lon="5.690322853624821">
        <ele>31.449999999999999</ele>
        <time>2026-03-31T07:42:50Z</time>
      </trkpt>
      <trkpt lat="51.193759655579925" lon="5.691755320876837">
        <ele>31.010000000000002</ele>
        <time>2026-03-31T07:43:22Z</time>
      </trkpt>
      <trkpt lat="51.193816987797618" lon="5.692087998613715">
        <ele>30.73</ele>
        <time>2026-03-31T07:43:42Z</time>
      </trkpt>
      <trkpt lat="51.193857053294778" lon="5.692591834813356">
        <ele>30.43</ele>
        <time>2026-03-31T07:44:07Z</time>
      </trkpt>
      <trkpt lat="51.194086046889424" lon="5.694538280367851">
        <ele>29.300000000000001</ele>
        <time>2026-03-31T07:45:48Z</time>
      </trkpt>
      <trkpt lat="51.19449969381094" lon="5.697978883981705">
        <ele>28.399999999999999</ele>
        <time>2026-03-31T07:48:42Z</time>
      </trkpt>
      <trkpt lat="51.194505393505096" lon="5.698131015524268">
        <ele>28.370000000000001</ele>
        <time>2026-03-31T07:48:52Z</time>
      </trkpt>
      <trkpt lat="51.193821681663394" lon="5.698779104277492">
        <ele>27.98</ele>
        <time>2026-03-31T07:49:59Z</time>
      </trkpt>
      <trkpt lat="51.193525213748217" lon="5.698611550033093">
        <ele>28.399999999999999</ele>
        <time>2026-03-31T07:50:16Z</time>
      </trkpt>
      <trkpt lat="51.193368891254067" lon="5.698668882250786">
        <ele>28.440000000000001</ele>
        <time>2026-03-31T07:50:30Z</time>
      </trkpt>
      <trkpt lat="51.192903108894825" lon="5.698937522247434">
        <ele>28.239999999999998</ele>
        <time>2026-03-31T07:51:13Z</time>
      </trkpt>
      <trkpt lat="51.192426262423396" lon="5.699166851118207">
        <ele>27.890000000000001</ele>
        <time>2026-03-31T07:51:44Z</time>
      </trkpt>
      <trkpt lat="51.192334061488509" lon="5.699128797277808">
        <ele>28.210000000000001</ele>
        <time>2026-03-31T07:52:01Z</time>
      </trkpt>
      <trkpt lat="51.192149994894862" lon="5.699063753709197">
        <ele>28.16</ele>
        <time>2026-03-31T07:52:17Z</time>
      </trkpt>
      <trkpt lat="51.19200917892158" lon="5.69901404902339">
        <ele>28.09</ele>
        <time>2026-03-31T07:52:40Z</time>
      </trkpt>
      <trkpt lat="51.191836763173342" lon="5.699044894427061">
        <ele>28.18</ele>
        <time>2026-03-31T07:52:57Z</time>
      </trkpt>
      <trkpt lat="51.19139252230525" lon="5.699258465319872">
        <ele>28.300000000000001</ele>
        <time>2026-03-31T07:53:25Z</time>
      </trkpt>
      <trkpt lat="51.19121415540576" lon="5.699243042618036">
        <ele>28.690000000000001</ele>
        <time>2026-03-31T07:53:39Z</time>
      </trkpt>
      <trkpt lat="51.190968984737992" lon="5.699208006262779">
        <ele>29.02</ele>
        <time>2026-03-31T07:54:55Z</time>
      </trkpt>
      <trkpt lat="51.190797239542007" lon="5.698780613020062">
        <ele>29.88671875</ele>
      </trkpt>
      <trkpt lat="51.190729849040508" lon="5.69873652420938">
        <ele>28.84</ele>
        <time>2026-03-31T07:55:05Z</time>
      </trkpt>
      <trkpt lat="51.190769663080573" lon="5.699904877692461">
        <ele>28.879999999999999</ele>
        <time>2026-03-31T07:56:02Z</time>
      </trkpt>
      <trkpt lat="51.190817859023809" lon="5.701173897832632">
        <ele>28.699999999999999</ele>
        <time>2026-03-31T07:56:58Z</time>
      </trkpt>
      <trkpt lat="51.190815847367048" lon="5.701427366584539">
        <ele>28.66</ele>
        <time>2026-03-31T07:57:16Z</time>
      </trkpt>
      <trkpt lat="51.190788187086582" lon="5.701729198917747">
        <ele>28.57</ele>
        <time>2026-03-31T07:57:29Z</time>
      </trkpt>
      <trkpt lat="51.1906957346946" lon="5.702687669545412">
        <ele>28.350000000000001</ele>
        <time>2026-03-31T07:58:19Z</time>
      </trkpt>
      <trkpt lat="51.190521558746696" lon="5.703630885109305">
        <ele>27.690000000000001</ele>
        <time>2026-03-31T07:59:09Z</time>
      </trkpt>
      <trkpt lat="51.190460370853543" lon="5.703883180394769">
        <ele>27.739999999999998</ele>
        <time>2026-03-31T07:59:21Z</time>
      </trkpt>
      <trkpt lat="51.190346963703632" lon="5.704454155638814">
        <ele>27.600000000000001</ele>
        <time>2026-03-31T07:59:59Z</time>
      </trkpt>
      <trkpt lat="51.19018854573369" lon="5.704999901354313">
        <ele>27.739999999999998</ele>
        <time>2026-03-31T08:00:21Z</time>
      </trkpt>
      <trkpt lat="51.189978495240211" lon="5.705864410847426">
        <ele>27.890000000000001</ele>
        <time>2026-03-31T08:01:08Z</time>
      </trkpt>
      <trkpt lat="51.18978445418179" lon="5.706666558980942">
        <ele>28.350000000000001</ele>
        <time>2026-03-31T08:01:35Z</time>
      </trkpt>
      <trkpt lat="51.189636262133718" lon="5.706785582005978">
        <ele>28.449999999999999</ele>
        <time>2026-03-31T08:02:04Z</time>
      </trkpt>
      <trkpt lat="51.188722467049956" lon="5.707567110657692">
        <ele>27.460000000000001</ele>
        <time>2026-03-31T08:03:50Z</time>
      </trkpt>
      <trkpt lat="51.188250901177526" lon="5.707765007391572">
        <ele>28.289999999999999</ele>
        <time>2026-03-31T08:04:07Z</time>
      </trkpt>
      <trkpt lat="51.188142858445644" lon="5.707513131201267">
        <ele>28.629999999999999</ele>
        <time>2026-03-31T08:04:22Z</time>
      </trkpt>
      <trkpt lat="51.187913445755839" lon="5.707040308043361">
        <ele>28.890000000000001</ele>
        <time>2026-03-31T08:04:50Z</time>
      </trkpt>
      <trkpt lat="51.187765588983893" lon="5.706772590056062">
        <ele>28.93</ele>
        <time>2026-03-31T08:04:52Z</time>
      </trkpt>
      <trkpt lat="51.18772242218256" lon="5.70672414265573">
        <ele>29.02</ele>
        <time>2026-03-31T08:05:13Z</time>
      </trkpt>
      <trkpt lat="51.187671208754182" lon="5.706719700247049">
        <ele>28.789999999999999</ele>
        <time>2026-03-31T08:05:16Z</time>
      </trkpt>
      <trkpt lat="51.18755335919559" lon="5.706869568675757">
        <ele>28.75</ele>
        <time>2026-03-31T08:05:26Z</time>
      </trkpt>
      <trkpt lat="51.187176089733839" lon="5.707367537543178">
        <ele>28.68</ele>
        <time>2026-03-31T08:06:06Z</time>
      </trkpt>
      <trkpt lat="51.186872916296124" lon="5.707734161987901">
        <ele>28.539999999999999</ele>
        <time>2026-03-31T08:06:35Z</time>
      </trkpt>
      <trkpt lat="51.186758168041706" lon="5.707903560250998">
        <ele>28.25</ele>
        <time>2026-03-31T08:06:48Z</time>
      </trkpt>
      <trkpt lat="51.186647778376937" lon="5.70816800929606">
        <ele>27.890000000000001</ele>
        <time>2026-03-31T08:07:03Z</time>
      </trkpt>
      <trkpt lat="51.186456419527531" lon="5.708736637607217">
        <ele>27.98</ele>
        <time>2026-03-31T08:07:34Z</time>
      </trkpt>
      <trkpt lat="51.186257684603333" lon="5.70929772220552">
        <ele>27.670000000000002</ele>
        <time>2026-03-31T08:08:07Z</time>
      </trkpt>
      <trkpt lat="51.186160705983639" lon="5.709531325846911">
        <ele>27.800000000000001</ele>
        <time>2026-03-31T08:08:23Z</time>
      </trkpt>
      <trkpt lat="51.18599901907146" lon="5.709980931133032">
        <ele>27.859999999999999</ele>
        <time>2026-03-31T08:08:51Z</time>
      </trkpt>
      <trkpt lat="51.185840014368296" lon="5.710434895008802">
        <ele>27.829999999999998</ele>
        <time>2026-03-31T08:09:07Z</time>
      </trkpt>
      <trkpt lat="51.185885863378644" lon="5.710620051249862">
        <ele>27.420000000000002</ele>
        <time>2026-03-31T08:09:21Z</time>
      </trkpt>
      <trkpt lat="51.185801792889833" lon="5.71072306483984">
        <ele>27.48</ele>
        <time>2026-03-31T08:09:36Z</time>
      </trkpt>
      <trkpt lat="51.185578498989344" lon="5.710805375128985">
        <ele>27.609999999999999</ele>
        <time>2026-03-31T08:09:53Z</time>
      </trkpt>
      <trkpt lat="51.184939630329609" lon="5.71112078614533">
        <ele>27.550000000000001</ele>
        <time>2026-03-31T08:10:25Z</time>
      </trkpt>
      <trkpt lat="51.184589266777039" lon="5.711301499977708">
        <ele>27.640000000000001</ele>
        <time>2026-03-31T08:11:15Z</time>
      </trkpt>
      <trkpt lat="51.184243177995086" lon="5.711407950147986">
        <ele>27.629999999999999</ele>
        <time>2026-03-31T08:11:44Z</time>
      </trkpt>
      <trkpt lat="51.184092722833157" lon="5.711279539391398">
        <ele>27.920000000000002</ele>
        <time>2026-03-31T08:11:58Z</time>
      </trkpt>
      <trkpt lat="51.183958947658539" lon="5.711060939356685">
        <ele>27.690000000000001</ele>
        <time>2026-03-31T08:12:15Z</time>
      </trkpt>
      <trkpt lat="51.183925084769726" lon="5.71090042591095">
        <ele>27.949999999999999</ele>
        <time>2026-03-31T08:12:27Z</time>
      </trkpt>
      <trkpt lat="51.183704137802124" lon="5.709560494869947">
        <ele>27.789999999999999</ele>
        <time>2026-03-31T08:14:04Z</time>
      </trkpt>
      <trkpt lat="51.183692989870906" lon="5.709201749414206">
        <ele>27.82</ele>
        <time>2026-03-31T08:14:14Z</time>
      </trkpt>
      <trkpt lat="51.183585533872247" lon="5.707533666864038">
        <ele>28.789999999999999</ele>
        <time>2026-03-31T08:15:37Z</time>
      </trkpt>
      <trkpt lat="51.183430133387446" lon="5.705849323421717">
        <ele>28.82</ele>
        <time>2026-03-31T08:17:13Z</time>
      </trkpt>
      <trkpt lat="51.183390067890286" lon="5.705115487799048">
        <ele>28.57</ele>
        <time>2026-03-31T08:17:50Z</time>
      </trkpt>
      <trkpt lat="51.183362994343042" lon="5.704624895006418">
        <ele>28.649999999999999</ele>
        <time>2026-03-31T08:18:12Z</time>
      </trkpt>
      <trkpt lat="51.183341117575765" lon="5.704226838424802">
        <ele>29.440000000000001</ele>
        <time>2026-03-31T08:18:31Z</time>
      </trkpt>
      <trkpt lat="51.183424685150385" lon="5.704156346619129">
        <ele>29.690000000000001</ele>
        <time>2026-03-31T08:18:47Z</time>
      </trkpt>
      <trkpt lat="51.183573883026838" lon="5.70394629612565">
        <ele>29.239999999999998</ele>
        <time>2026-03-31T08:19:02Z</time>
      </trkpt>
      <trkpt lat="51.183716794475913" lon="5.703626191243529">
        <ele>29.079999999999998</ele>
        <time>2026-03-31T08:19:16Z</time>
      </trkpt>
      <trkpt lat="51.183830033987761" lon="5.703634992241859">
        <ele>28.82</ele>
        <time>2026-03-31T08:19:30Z</time>
      </trkpt>
      <trkpt lat="51.183883929625154" lon="5.70344103500247">
        <ele>28.23</ele>
        <time>2026-03-31T08:19:49Z</time>
      </trkpt>
      <trkpt lat="51.18383539840579" lon="5.703247077763081">
        <ele>28.050000000000001</ele>
        <time>2026-03-31T08:20:05Z</time>
      </trkpt>
      <trkpt lat="51.183827351778746" lon="5.702938539907336">
        <ele>27.949999999999999</ele>
        <time>2026-03-31T08:20:12Z</time>
      </trkpt>
      <trkpt lat="51.183793069794774" lon="5.699387798085809">
        <ele>28.219999999999999</ele>
        <time>2026-03-31T08:23:17Z</time>
      </trkpt>
      <trkpt lat="51.183537924662232" lon="5.698347687721252">
        <ele>28.059999999999999</ele>
        <time>2026-03-31T08:24:13Z</time>
      </trkpt>
      <trkpt lat="51.18332234211266" lon="5.697519052773714">
        <ele>27.879999999999999</ele>
        <time>2026-03-31T08:24:44Z</time>
      </trkpt>
      <trkpt lat="51.183249587193131" lon="5.6974265165627">
        <ele>27.390000000000001</ele>
        <time>2026-03-31T08:24:58Z</time>
      </trkpt>
      <trkpt lat="51.183270122855902" lon="5.697312103584409">
        <ele>27.539999999999999</ele>
        <time>2026-03-31T08:25:00Z</time>
      </trkpt>
      <trkpt lat="51.183923408389091" lon="5.694575160741806">
        <ele>28.120000000000001</ele>
        <time>2026-03-31T08:27:33Z</time>
      </trkpt>
      <trkpt lat="51.184045281261206" lon="5.694414144381881">
        <ele>27.920000000000002</ele>
        <time>2026-03-31T08:27:48Z</time>
      </trkpt>
      <trkpt lat="51.184109402820468" lon="5.694178529083729">
        <ele>27.539999999999999</ele>
        <time>2026-03-31T08:28:22Z</time>
      </trkpt>
      <trkpt lat="51.184469657018781" lon="5.693604871630669">
        <ele>27.510000000000002</ele>
        <time>2026-03-31T08:28:42Z</time>
      </trkpt>
      <trkpt lat="51.184605611488223" lon="5.693349977955222">
        <ele>27.41</ele>
        <time>2026-03-31T08:28:59Z</time>
      </trkpt>
      <trkpt lat="51.184567138552666" lon="5.693318042904139">
        <ele>26.969999999999999</ele>
        <time>2026-03-31T08:30:16Z</time>
      </trkpt>
      <trkpt lat="51.184389190748334" lon="5.693112434819341">
        <ele>26.32</ele>
        <time>2026-03-31T08:30:35Z</time>
      </trkpt>
      <trkpt lat="51.184223731979728" lon="5.692901713773608">
        <ele>26.690000000000001</ele>
        <time>2026-03-31T08:30:57Z</time>
      </trkpt>
      <trkpt lat="51.184055339545012" lon="5.692699961364269">
        <ele>26.670000000000002</ele>
        <time>2026-03-31T08:31:14Z</time>
      </trkpt>
      <trkpt lat="51.183636663481593" lon="5.692184222862124">
        <ele>26.41</ele>
        <time>2026-03-31T08:31:58Z</time>
      </trkpt>
      <trkpt lat="51.183373555541039" lon="5.691828075796366">
        <ele>26.059999999999999</ele>
        <time>2026-03-31T08:32:32Z</time>
      </trkpt>
      <trkpt lat="51.183192925527692" lon="5.691581228747964">
        <ele>26.02</ele>
        <time>2026-03-31T08:32:51Z</time>
      </trkpt>
      <trkpt lat="51.183138024061918" lon="5.691425744444132">
        <ele>26</ele>
        <time>2026-03-31T08:33:05Z</time>
      </trkpt>
      <trkpt lat="51.182844322174788" lon="5.688735824078322">
        <ele>26.120000000000001</ele>
        <time>2026-03-31T08:35:27Z</time>
      </trkpt>
      <trkpt lat="51.182683473452926" lon="5.687322970479727">
        <ele>25.57</ele>
        <time>2026-03-31T08:36:43Z</time>
      </trkpt>
      <trkpt lat="51.182637708261609" lon="5.686930697411299">
        <ele>25.899999999999999</ele>
        <time>2026-03-31T08:37:07Z</time>
      </trkpt>
      <trkpt lat="51.182886986061931" lon="5.686914687976241">
        <ele>25.940000000000001</ele>
        <time>2026-03-31T08:37:23Z</time>
      </trkpt>
      <trkpt lat="51.18316451087594" lon="5.686891218647361">
        <ele>26.039999999999999</ele>
        <time>2026-03-31T08:37:42Z</time>
      </trkpt>
      <trkpt lat="51.183558544144034" lon="5.686885016039014">
        <ele>25.760000000000002</ele>
        <time>2026-03-31T08:38:14Z</time>
      </trkpt>
      <trkpt lat="51.185293681919575" lon="5.686824750155211">
        <ele>26.23</ele>
        <time>2026-03-31T08:40:48Z</time>
      </trkpt>
      <trkpt lat="51.185317821800709" lon="5.686779320240021">
        <ele>26.170000000000002</ele>
        <time>2026-03-31T08:40:53Z</time>
      </trkpt>
      <trkpt lat="51.185212712734938" lon="5.685699479654431">
        <ele>25.739999999999998</ele>
        <time>2026-03-31T08:41:48Z</time>
      </trkpt>
      <trkpt lat="51.18514440022409" lon="5.685114925727248">
        <ele>26.530000000000001</ele>
        <time>2026-03-31T08:42:18Z</time>
      </trkpt>
      <trkpt lat="51.185103999450803" lon="5.684753498062491">
        <ele>26.559999999999999</ele>
        <time>2026-03-31T08:42:36Z</time>
      </trkpt>
      <trkpt lat="51.185117494314909" lon="5.684577142819762">
        <ele>27.02</ele>
        <time>2026-03-31T08:42:43Z</time>
      </trkpt>
      <trkpt lat="51.185114728286862" lon="5.684352423995733">
        <ele>27.239999999999998</ele>
        <time>2026-03-31T08:42:58Z</time>
      </trkpt>
      <trkpt lat="51.185128223150969" lon="5.684264246374369">
        <ele>27.260000000000002</ele>
        <time>2026-03-31T08:42:59Z</time>
      </trkpt>
      <trkpt lat="51.185290748253465" lon="5.682848794385791">
        <ele>27.41</ele>
        <time>2026-03-31T08:44:13Z</time>
      </trkpt>
      <trkpt lat="51.185318492352962" lon="5.682571353390813">
        <ele>26.969999999999999</ele>
        <time>2026-03-31T08:44:28Z</time>
      </trkpt>
      <trkpt lat="51.185338106006384" lon="5.682304725050926">
        <ele>26.75</ele>
        <time>2026-03-31T08:44:42Z</time>
      </trkpt>
      <trkpt lat="51.185372052714229" lon="5.68175227381289">
        <ele>26.530000000000001</ele>
        <time>2026-03-31T08:45:07Z</time>
      </trkpt>
      <trkpt lat="51.185417314991355" lon="5.681170066818595">
        <ele>26.780000000000001</ele>
        <time>2026-03-31T08:45:37Z</time>
      </trkpt>
      <trkpt lat="51.18541656062007" lon="5.68106185644865">
        <ele>26.780000000000001</ele>
        <time>2026-03-31T08:45:42Z</time>
      </trkpt>
      <trkpt lat="51.185418153181672" lon="5.680869994685054">
        <ele>26.579999999999998</ele>
        <time>2026-03-31T08:45:52Z</time>
      </trkpt>
      <trkpt lat="51.185002159327269" lon="5.678417198359966">
        <ele>25.91</ele>
        <time>2026-03-31T08:47:55Z</time>
      </trkpt>
      <trkpt lat="51.184789258986712" lon="5.677267368882895">
        <ele>25.460000000000001</ele>
        <time>2026-03-31T08:48:58Z</time>
      </trkpt>
      <trkpt lat="51.184810297563672" lon="5.677112890407443">
        <ele>25.370000000000001</ele>
        <time>2026-03-31T08:49:02Z</time>
      </trkpt>
      <trkpt lat="51.184848099946976" lon="5.677064443007112">
        <ele>25.649999999999999</ele>
        <time>2026-03-31T08:49:08Z</time>
      </trkpt>
      <trkpt lat="51.185892233625054" lon="5.676873419433832">
        <ele>25.73</ele>
        <time>2026-03-31T08:50:40Z</time>
      </trkpt>
      <trkpt lat="51.186152743175626" lon="5.676865456625819">
        <ele>25.780000000000001</ele>
        <time>2026-03-31T08:50:59Z</time>
      </trkpt>
      <trkpt lat="51.186502519994974" lon="5.676884315907955">
        <ele>26.41</ele>
        <time>2026-03-31T08:51:28Z</time>
      </trkpt>
      <trkpt lat="51.187110375612974" lon="5.676976852118969">
        <ele>26.489999999999998</ele>
        <time>2026-03-31T08:52:15Z</time>
      </trkpt>
      <trkpt lat="51.187461158260703" lon="5.676909545436502">
        <ele>26.050000000000001</ele>
        <time>2026-03-31T08:52:44Z</time>
      </trkpt>
      <trkpt lat="51.18753919377923" lon="5.676897810772061">
        <ele>25.949999999999999</ele>
        <time>2026-03-31T08:52:49Z</time>
      </trkpt>
      <trkpt lat="51.187589401379228" lon="5.676882471889257">
        <ele>25.850000000000001</ele>
        <time>2026-03-31T08:52:53Z</time>
      </trkpt>
      <trkpt lat="51.187978070229292" lon="5.676808124408126">
        <ele>25.699999999999999</ele>
        <time>2026-03-31T08:53:23Z</time>
      </trkpt>
      <trkpt lat="51.188259115442634" lon="5.676761269569397">
        <ele>25.66</ele>
        <time>2026-03-31T08:53:46Z</time>
      </trkpt>
      <trkpt lat="51.188633367419243" lon="5.676675606518984">
        <ele>25.530000000000001</ele>
        <time>2026-03-31T08:54:14Z</time>
      </trkpt>
      <trkpt lat="51.18901340290904" lon="5.676565384492278">
        <ele>25.300000000000001</ele>
        <time>2026-03-31T08:54:41Z</time>
      </trkpt>
      <trkpt lat="51.189203085377812" lon="5.676552224904299">
        <ele>25.170000000000002</ele>
        <time>2026-03-31T08:54:59Z</time>
      </trkpt>
      <trkpt lat="51.189545402303338" lon="5.676538981497288">
        <ele>25.109999999999999</ele>
        <time>2026-03-31T08:55:27Z</time>
      </trkpt>
      <trkpt lat="51.189993917942047" lon="5.676552224904299">
        <ele>25.379999999999999</ele>
        <time>2026-03-31T08:55:55Z</time>
      </trkpt>
      <trkpt lat="51.190263396129012" lon="5.67660067230463">
        <ele>25.190000000000001</ele>
        <time>2026-03-31T08:56:25Z</time>
      </trkpt>
      <trkpt lat="51.190629936754704" lon="5.676680048927665">
        <ele>25.329999999999998</ele>
        <time>2026-03-31T08:56:55Z</time>
      </trkpt>
      <trkpt lat="51.19097669608891" lon="5.676778201013804">
        <ele>25.670000000000002</ele>
        <time>2026-03-31T08:57:19Z</time>
      </trkpt>
      <trkpt lat="51.191008044406772" lon="5.676793791353703">
        <ele>25.68</ele>
        <time>2026-03-31T08:57:21Z</time>
      </trkpt>
      <trkpt lat="51.19111206382513" lon="5.676734112203121">
        <ele>25.91</ele>
        <time>2026-03-31T08:57:31Z</time>
      </trkpt>
      <trkpt lat="51.191145507618785" lon="5.676490198820829">
        <ele>26</ele>
        <time>2026-03-31T08:57:43Z</time>
      </trkpt>
      <trkpt lat="51.191212395206094" lon="5.675870357081294">
        <ele>26.039999999999999</ele>
        <time>2026-03-31T08:58:13Z</time>
      </trkpt>
      <trkpt lat="51.191265285015106" lon="5.675629377365112">
        <ele>26.190000000000001</ele>
        <time>2026-03-31T08:58:30Z</time>
      </trkpt>
      <trkpt lat="51.191316414624453" lon="5.675272392109036">
        <ele>26.129999999999999</ele>
        <time>2026-03-31T08:58:47Z</time>
      </trkpt>
      <trkpt lat="51.191502409055829" lon="5.673897173255682">
        <ele>26.379999999999999</ele>
        <time>2026-03-31T08:59:18Z</time>
      </trkpt>
      <trkpt lat="51.191510455682874" lon="5.673760548233986">
        <ele>26.670000000000002</ele>
        <time>2026-03-31T08:59:45Z</time>
      </trkpt>
      <trkpt lat="51.191514646634459" lon="5.673428038135171">
        <ele>26.539999999999999</ele>
        <time>2026-03-31T09:00:18Z</time>
      </trkpt>
      <trkpt lat="51.191524034366012" lon="5.672591524198651">
        <ele>26.469999999999999</ele>
        <time>2026-03-31T09:01:04Z</time>
      </trkpt>
      <trkpt lat="51.191464774310589" lon="5.6715027987957">
        <ele>26.329999999999998</ele>
        <time>2026-03-31T09:01:52Z</time>
      </trkpt>
      <trkpt lat="51.191411716863513" lon="5.670752869918943">
        <ele>26.219999999999999</ele>
        <time>2026-03-31T09:02:30Z</time>
      </trkpt>
      <trkpt lat="51.191359749063849" lon="5.669635310769081">
        <ele>26.32</ele>
        <time>2026-03-31T09:03:25Z</time>
      </trkpt>
      <trkpt lat="51.191322784870863" lon="5.668867444619536">
        <ele>25.850000000000001</ele>
        <time>2026-03-31T09:04:08Z</time>
      </trkpt>
      <trkpt lat="51.191286407411098" lon="5.668060351163149">
        <ele>25.940000000000001</ele>
        <time>2026-03-31T09:04:43Z</time>
      </trkpt>
      <trkpt lat="51.191245838999748" lon="5.667142700403929">
        <ele>25.690000000000001</ele>
        <time>2026-03-31T09:05:31Z</time>
      </trkpt>
      <trkpt lat="51.191216083243489" lon="5.666464688256383">
        <ele>26.050000000000001</ele>
        <time>2026-03-31T09:06:02Z</time>
      </trkpt>
      <trkpt lat="51.191178699955344" lon="5.665630269795656">
        <ele>26.539999999999999</ele>
        <time>2026-03-31T09:06:40Z</time>
      </trkpt>
      <trkpt lat="51.191161852329969" lon="5.664932308718562">
        <ele>27.239999999999998</ele>
        <time>2026-03-31T09:07:18Z</time>
      </trkpt>
      <trkpt lat="51.191132264211774" lon="5.664447415620089">
        <ele>27.059999999999999</ele>
        <time>2026-03-31T09:07:46Z</time>
      </trkpt>
      <trkpt lat="51.191088259220123" lon="5.663736630231142">
        <ele>27.149999999999999</ele>
        <time>2026-03-31T09:08:19Z</time>
      </trkpt>
      <trkpt lat="51.191061772406101" lon="5.663109244778752">
        <ele>27.210000000000001</ele>
        <time>2026-03-31T09:08:46Z</time>
      </trkpt>
      <trkpt lat="51.191041404381394" lon="5.662742955610156">
        <ele>27.170000000000002</ele>
        <time>2026-03-31T09:09:05Z</time>
      </trkpt>
      <trkpt lat="51.190999327227473" lon="5.662026470527053">
        <ele>27.050000000000001</ele>
        <time>2026-03-31T09:09:40Z</time>
      </trkpt>
      <trkpt lat="51.190911736339331" lon="5.660259732976556">
        <ele>27.210000000000001</ele>
        <time>2026-03-31T09:11:00Z</time>
      </trkpt>
      <trkpt lat="51.190899079665542" lon="5.65996921621263">
        <ele>26.98</ele>
        <time>2026-03-31T09:11:17Z</time>
      </trkpt>
      <trkpt lat="51.190855326130986" lon="5.659501506015658">
        <ele>26.530000000000001</ele>
        <time>2026-03-31T09:11:40Z</time>
      </trkpt>
      <trkpt lat="51.190799083560705" lon="5.658834474161267">
        <ele>26.050000000000001</ele>
        <time>2026-03-31T09:12:10Z</time>
      </trkpt>
      <trkpt lat="51.190763711929321" lon="5.65817741677165">
        <ele>25.969999999999999</ele>
        <time>2026-03-31T09:12:43Z</time>
      </trkpt>
      <trkpt lat="51.190762119367719" lon="5.65788228996098">
        <ele>26.149999999999999</ele>
        <time>2026-03-31T09:13:02Z</time>
      </trkpt>
      <trkpt lat="51.190764801576734" lon="5.657617840915918">
        <ele>26.190000000000001</ele>
        <time>2026-03-31T09:13:10Z</time>
      </trkpt>
    </trkseg>
  </trk>

</gpx>